createdAt,value
2018-04-22T00:00:51.916Z,84.5
2018-04-22T00:11:06.395Z,85.3
2018-04-22T00:21:21.059Z,85.5
2018-04-22T00:31:34.822Z,87.6
2018-04-22T00:41:49.766Z,88.1
2018-04-22T00:52:04.480Z,88.4
2018-04-22T01:02:19.866Z,88.4
2018-04-22T01:12:34.741Z,88.2
2018-04-22T01:22:50.087Z,88.1
2018-04-22T01:33:03.701Z,89.1
2018-04-22T01:43:17.635Z,89.5
2018-04-22T01:53:32.901Z,90.5
2018-04-22T02:03:47.541Z,90.4
2018-04-22T02:14:02.534Z,91
2018-04-22T02:24:17.642Z,92.3
2018-04-22T02:34:32.582Z,92.7
2018-04-22T02:44:47.652Z,93.1
2018-04-22T02:55:01.566Z,93.7
2018-04-22T03:05:15.704Z,94.9
2018-04-22T03:15:30.299Z,95.2
2018-04-22T03:25:44.033Z,97.4
2018-04-22T03:35:58.589Z,98.7
2018-04-22T03:46:12.585Z,99.6
2018-04-22T03:56:26.465Z,100
2018-04-22T04:06:40.538Z,100
2018-04-22T04:16:55.260Z,100
2018-04-22T04:27:09.544Z,100
2018-04-22T04:37:24.506Z,100
2018-04-22T04:47:38.473Z,99.7
2018-04-22T04:57:54.079Z,97.3
2018-04-22T05:08:08.914Z,97.1
2018-04-22T05:18:23.376Z,95.7
2018-04-22T05:28:38.564Z,95.9
2018-04-22T05:38:53.065Z,95.5
2018-04-22T05:49:08.060Z,95
2018-04-22T05:59:22.388Z,94.5
2018-04-22T06:09:37.117Z,94
2018-04-22T06:19:51.267Z,93.6
2018-04-22T06:30:06.117Z,92.7
2018-04-22T06:40:20.671Z,91.3
2018-04-22T06:50:34.954Z,89.3
2018-04-22T07:00:48.884Z,88.8
2018-04-22T07:11:04.351Z,89.5
2018-04-22T07:21:18.292Z,87.3
2018-04-22T07:31:33.161Z,85.9
2018-04-22T07:41:47.099Z,83
2018-04-22T07:52:02.791Z,79.9
2018-04-22T08:02:18.287Z,78.4
2018-04-22T08:12:33.218Z,77.2
2018-04-22T08:22:48.440Z,76.4
2018-04-22T08:33:04.298Z,75.6
2018-04-22T08:43:19.199Z,73.9
2018-04-22T08:53:34.123Z,73.4
2018-04-22T09:03:48.550Z,74.7
2018-04-22T09:14:04.143Z,74.5
2018-04-22T09:24:18.110Z,74.4
2018-04-22T09:34:32.167Z,74.3
2018-04-22T09:44:47.350Z,72.9
2018-04-22T09:55:02.295Z,71.7
2018-04-22T10:05:18.015Z,70.7
2018-04-22T10:15:32.787Z,69.7
2018-04-22T10:25:48.363Z,69.8
2018-04-22T10:36:04.283Z,68.9
2018-04-22T10:46:18.619Z,68
2018-04-22T10:56:33.129Z,67
2018-04-22T11:06:48.671Z,65.9
2018-04-22T11:17:04.427Z,66.2
2018-04-22T11:27:18.668Z,66.9
2018-04-22T11:37:34.153Z,66.1
2018-04-22T11:47:48.272Z,64
2018-04-22T11:58:03.446Z,62.8
2018-04-22T12:08:19.408Z,61
2018-04-22T12:18:34.929Z,59.2
2018-04-22T12:28:50.340Z,57.4
2018-04-22T12:39:05.508Z,56.3
2018-04-22T12:49:20.227Z,54.3
2018-04-22T12:59:34.925Z,52.9
2018-04-22T13:09:49.550Z,51.5
2018-04-22T13:20:03.703Z,52
2018-04-22T13:30:19.243Z,51.6
2018-04-22T13:40:33.912Z,51.8
2018-04-22T13:50:49.780Z,54.2
2018-04-22T14:01:03.760Z,56
2018-04-22T14:11:18.874Z,57.6
2018-04-22T14:21:34.536Z,62.6
2018-04-22T14:31:49.331Z,66
2018-04-22T14:42:04.381Z,64.1
2018-04-22T14:52:18.058Z,58.9
2018-04-22T15:02:32.788Z,57.9
2018-04-22T15:12:48.001Z,56.6
2018-04-22T15:23:03.077Z,58.2
2018-04-22T15:33:18.041Z,58.9
2018-04-22T15:43:33.506Z,61.2
2018-04-22T15:53:47.713Z,62.9
2018-04-22T16:04:03.209Z,64
2018-04-22T16:14:18.827Z,65.7
2018-04-22T16:24:34.423Z,68
2018-04-22T16:34:49.732Z,69
2018-04-22T16:45:05.159Z,68.6
2018-04-22T16:55:20.286Z,69
2018-04-22T17:05:35.259Z,69.1
2018-04-22T17:15:49.838Z,70.4
2018-04-22T17:26:04.328Z,71.8
2018-04-22T17:36:18.238Z,73.6
2018-04-22T17:46:32.926Z,77.2
2018-04-22T17:56:48.653Z,79.1
2018-04-22T18:07:03.363Z,81.4
2018-04-22T18:17:17.217Z,83
2018-04-22T18:27:31.991Z,84.4
2018-04-22T18:37:46.222Z,85.3
2018-04-22T18:48:00.605Z,87
2018-04-22T18:58:14.577Z,93.6
2018-04-22T19:08:30.030Z,92.7
2018-04-22T19:18:45.734Z,90.3
2018-04-22T19:29:01.366Z,82.9
2018-04-22T19:39:15.731Z,74.4
2018-04-22T19:49:31.320Z,71.2
2018-04-22T19:59:46.322Z,70.5
2018-04-22T20:10:01.009Z,70.2
2018-04-22T20:20:15.675Z,69.7
2018-04-22T20:30:31.372Z,68.6
2018-04-22T20:40:46.546Z,68.3
2018-04-22T20:51:01.707Z,67.8
2018-04-22T21:01:15.679Z,66.5
2018-04-22T21:11:30.204Z,66.1
2018-04-22T21:21:44.576Z,65.7
2018-04-22T21:31:58.547Z,65.5
2018-04-22T21:42:12.324Z,64.3
2018-04-22T21:52:27.316Z,64
2018-04-22T22:02:41.603Z,63.2
2018-04-22T22:12:56.369Z,63.4
2018-04-22T22:23:10.652Z,63.4
2018-04-22T22:33:24.518Z,63.2
2018-04-22T22:43:38.694Z,62.8
2018-04-22T22:53:53.654Z,62.5
2018-04-22T23:04:08.479Z,62.1
2018-04-22T23:14:23.841Z,62.1
2018-04-22T23:24:38.592Z,62.6
2018-04-22T23:34:53.746Z,61.8
2018-04-22T23:45:08.710Z,61.8
2018-04-22T23:55:22.451Z,60
